Time;durP1;ratioP1;P1;durP2;ratioP2;P2;SDS_P1;SDS_P2;PMS_P1;PMS_P2;Temp;Humidity;BMP_temperature;BMP_pressure;BME280_temperature;BME280_humidity;BME280_pressure;Samples;Min_cycle;Max_cycle;Signal;HPM_P1;HPM_P2
2022/01/28 00:00:07;;;;;;;6.73;5.90;;;;;;;-143.84;53.60;45165.22;5091320;28;20469;-73
2022/01/28 00:02:48;;;;;;;9.10;5.70;;;;;;;-143.84;53.02;45159.50;5091259;28;20496;-73
2022/01/28 00:05:19;;;;;;;8.23;5.80;;;;;;;-143.84;53.36;45153.81;5091171;28;20535;-73
2022/01/28 00:07:46;;;;;;;7.97;5.67;;;;;;;-143.84;53.39;45151.91;5091086;28;20424;-74
2022/01/28 00:10:14;;;;;;;8.80;5.17;;;;;;;-143.84;53.21;45129.03;5091293;28;20489;-73
2022/01/28 00:13:06;;;;;;;7.83;5.77;;;;;;;-143.84;53.41;45174.75;5090965;28;20447;-73
2022/01/28 00:15:37;;;;;;;8.70;6.00;;;;;;;-143.84;52.98;45138.56;5091124;28;20457;-74
2022/01/28 00:37:26;;;;;;;12.03;5.80;;;;;;;-143.84;52.13;45189.97;5075196;28;20479;-73
2022/01/28 00:39:53;;;;;;;6.93;6.10;;;;;;;-143.84;51.98;45142.38;5090259;28;20454;-73
2022/01/28 00:42:21;;;;;;;5.13;4.63;;;;;;;-143.84;51.81;45121.44;5090387;28;20455;-73
2022/01/28 00:44:49;;;;;;;8.07;5.30;;;;;;;-143.84;50.83;45170.94;5090222;28;20489;-73
2022/01/28 00:47:16;;;;;;;5.50;4.87;;;;;;;-143.84;50.28;45129.03;5090025;28;20493;-73
2022/01/28 00:49:43;;;;;;;10.57;5.70;;;;;;;-143.84;50.27;45132.84;5090435;28;20440;-73
2022/01/28 00:52:11;;;;;;;5.50;4.30;;;;;;;-143.84;49.60;45148.09;5090406;28;20472;-73
2022/01/28 00:54:38;;;;;;;7.70;4.50;;;;;;;-143.84;49.46;45138.56;5090346;28;20438;-73
2022/01/28 00:57:05;;;;;;;6.90;3.40;;;;;;;-143.84;48.78;45138.56;5090203;28;20439;-73
2022/01/28 00:59:32;;;;;;;7.33;3.87;;;;;;;-143.84;48.68;45144.28;5089776;28;20471;-73
2022/01/28 01:02:01;;;;;;;4.20;3.80;;;;;;;-143.84;47.76;45155.69;5090249;28;20436;-73
2022/01/28 01:04:28;;;;;;;6.57;4.00;;;;;;;-143.84;47.79;45138.56;5089829;28;20435;-73
2022/01/28 01:06:55;;;;;;;5.83;4.50;;;;;;;-143.84;47.85;45129.03;5089869;28;20500;-73
2022/01/28 01:09:23;;;;;;;4.87;4.37;;;;;;;-143.84;47.52;45148.09;5089298;28;20443;-73
2022/01/28 01:11:50;;;;;;;6.10;4.70;;;;;;;-143.84;47.97;45140.47;5089556;28;20481;-73
2022/01/28 01:14:18;;;;;;;4.33;3.93;;;;;;;-143.84;47.63;45142.38;5089236;28;20464;-74
2022/01/28 01:17:03;;;;;;;4.40;4.00;;;;;;;-143.84;47.67;45178.56;5089145;28;20439;-74
2022/01/28 01:19:37;;;;;;;6.17;4.40;;;;;;;-143.84;47.78;45125.22;5088309;28;20863;-73
2022/01/28 01:22:10;;;;;;;3.97;3.57;;;;;;;-143.84;47.62;45161.41;5088912;28;20471;-73
2022/01/28 01:24:49;;;;;;;5.27;4.20;;;;;;;-143.84;47.41;45130.94;5088704;28;20950;-74
2022/01/28 01:27:20;;;;;;;4.73;4.07;;;;;;;-143.84;47.68;45136.66;5088612;28;20450;-73
2022/01/28 01:29:48;;;;;;;9.13;5.30;;;;;;;-143.84;47.44;45123.34;5087721;28;20526;-73
2022/01/28 01:32:17;;;;;;;8.50;5.27;;;;;;;-143.84;47.21;45127.13;5088224;28;20443;-73
2022/01/28 01:35:05;;;;;;;4.53;4.03;;;;;;;-143.84;46.73;45144.28;5088749;28;20812;-73
2022/01/28 01:37:33;;;;;;;5.03;4.17;;;;;;;-143.84;46.80;45155.69;5088379;28;20506;-74
2022/01/28 01:40:00;;;;;;;4.17;3.60;;;;;;;-143.84;46.27;45132.84;5089464;28;20444;-73
2022/01/28 01:42:34;;;;;;;6.30;5.03;;;;;;;-143.84;46.16;45144.28;5088258;28;20439;-73
2022/01/28 01:45:43;;;;;;;4.73;4.20;;;;;;;-143.84;45.95;45155.69;5087404;28;20692;-73
2022/01/28 01:53:35;;;;;;;5.30;4.50;;;;;;;-143.84;46.01;45136.66;5087708;28;21017;-74
2022/01/28 01:56:02;;;;;;;4.60;4.20;;;;;;;-143.84;45.81;45146.19;5087860;28;20447;-73
2022/01/28 01:58:31;;;;;;;5.00;4.10;;;;;;;-143.84;45.55;45153.81;5088120;28;20475;-73
2022/01/28 02:01:00;;;;;;;5.23;4.53;;;;;;;-143.84;45.72;45140.47;5089175;28;20505;-73
2022/01/28 02:03:27;;;;;;;8.40;4.43;;;;;;;-143.84;45.23;45144.28;5089330;28;20440;-73
2022/01/28 02:05:59;;;;;;;4.83;4.43;;;;;;;-143.84;45.47;45146.19;5089096;28;20471;-74
2022/01/28 02:08:27;;;;;;;4.70;4.30;;;;;;;-143.84;45.21;45159.50;5089169;28;20546;-73
2022/01/28 02:10:57;;;;;;;3.70;3.40;;;;;;;-143.84;44.76;45150.00;5088915;28;20440;-73
2022/01/28 02:13:24;;;;;;;5.40;4.30;;;;;;;-143.84;44.77;45136.66;5089068;28;20451;-74
2022/01/28 02:15:52;;;;;;;4.03;3.73;;;;;;;-143.84;45.05;45132.84;5088955;28;20477;-73
2022/01/28 02:18:19;;;;;;;4.37;3.97;;;;;;;-143.84;44.74;45125.22;5089155;28;20989;-73
2022/01/28 02:20:50;;;;;;;4.27;3.77;;;;;;;-143.84;44.81;45146.19;5088917;28;20436;-74
2022/01/28 02:23:19;;;;;;;4.50;3.80;;;;;;;-143.84;44.78;45148.09;5070782;28;20448;-74
2022/01/28 02:25:47;;;;;;;3.73;3.43;;;;;;;-143.84;44.88;45148.09;5088878;28;20528;-74
2022/01/28 02:28:17;;;;;;;5.17;4.37;;;;;;;-143.84;44.84;45148.09;5088594;28;20446;-74
2022/01/28 02:30:44;;;;;;;4.93;4.07;;;;;;;-143.84;45.29;45129.03;5088175;28;20503;-74
2022/01/28 02:33:14;;;;;;;4.50;4.07;;;;;;;-143.84;45.40;45148.09;5087479;28;20446;-73
2022/01/28 02:35:43;;;;;;;4.70;4.03;;;;;;;-143.84;45.49;45138.56;5088722;28;20767;-74
2022/01/28 02:38:13;;;;;;;11.20;3.73;;;;;;;-143.84;45.06;45140.47;5088038;28;20484;-74
2022/01/28 02:40:46;;;;;;;6.87;4.27;;;;;;;-143.84;44.75;45153.81;5089042;28;20816;-73
2022/01/28 02:43:27;;;;;;;4.70;3.70;;;;;;;-143.84;44.96;45159.50;5088829;28;20446;-73
2022/01/28 02:45:57;;;;;;;4.30;3.90;;;;;;;-143.84;44.32;45130.94;5088464;28;20979;-73
2022/01/28 02:48:27;;;;;;;3.70;3.27;;;;;;;-143.84;44.62;45136.66;5088496;28;20451;-74
2022/01/28 02:51:03;;;;;;;3.67;3.37;;;;;;;-143.84;43.93;45150.00;5088704;28;20526;-73
2022/01/28 02:53:40;;;;;;;3.53;2.80;;;;;;;-143.84;43.93;45155.69;5088657;28;20439;-73
2022/01/28 02:56:15;;;;;;;3.90;3.20;;;;;;;-143.84;44.01;45134.75;5088798;28;20498;-73
2022/01/28 02:58:43;;;;;;;7.00;3.87;;;;;;;-143.84;44.12;45148.09;5088317;28;20601;-73
2022/01/28 03:01:13;;;;;;;3.77;3.47;;;;;;;-143.84;43.73;45148.09;5088419;28;20436;-73
2022/01/28 03:03:41;;;;;;;7.90;4.60;;;;;;;-143.84;43.82;45140.47;5088472;28;20443;-73
2022/01/28 03:06:08;;;;;;;5.77;3.67;;;;;;;-143.84;43.83;45153.81;5088294;28;20451;-73
2022/01/28 03:08:37;;;;;;;3.47;3.27;;;;;;;-143.84;43.87;45138.56;5088569;28;20905;-73
2022/01/28 03:17:01;;;;;;;4.13;3.30;;;;;;;-143.84;43.31;45138.56;5086031;28;20588;-73
2022/01/28 03:19:41;;;;;;;3.83;2.90;;;;;;;-143.84;43.70;45132.84;5091958;28;20552;-73
2022/01/28 03:22:08;;;;;;;3.27;3.07;;;;;;;-143.84;43.44;45136.66;5091886;28;20457;-74
2022/01/28 03:24:37;;;;;;;4.20;2.73;;;;;;;-143.84;43.73;45134.75;5091802;28;20805;-73
2022/01/28 03:27:10;;;;;;;3.20;2.90;;;;;;;-143.84;42.92;45161.41;5092088;28;20545;-73
2022/01/28 03:29:37;;;;;;;3.37;3.07;;;;;;;-143.84;43.08;45132.84;5091893;28;20500;-73
2022/01/28 03:32:05;;;;;;;4.63;3.20;;;;;;;-143.84;42.61;45151.91;5091875;28;20435;-73
2022/01/28 03:34:32;;;;;;;3.57;3.27;;;;;;;-143.84;43.03;45150.00;5091539;28;20443;-73
2022/01/28 03:37:00;;;;;;;4.43;3.70;;;;;;;-143.84;43.12;45157.59;5079812;28;20490;-73
2022/01/28 03:39:27;;;;;;;5.20;4.00;;;;;;;-143.84;42.88;45134.75;5071277;28;20464;-73
2022/01/28 03:41:55;;;;;;;4.60;3.30;;;;;;;-143.84;43.08;45142.38;5070777;28;20441;-73
2022/01/28 03:44:23;;;;;;;5.63;3.90;;;;;;;-143.84;42.52;45129.03;5071279;28;20487;-73
2022/01/28 03:46:50;;;;;;;6.17;4.30;;;;;;;-143.84;42.36;45134.75;5071444;28;20441;-73
2022/01/28 03:49:17;;;;;;;3.50;3.20;;;;;;;-143.84;42.34;45161.41;5071091;28;20444;-73
2022/01/28 03:51:44;;;;;;;4.37;3.97;;;;;;;-143.84;42.58;45129.03;5071574;28;20437;-73
2022/01/28 03:54:11;;;;;;;4.13;3.50;;;;;;;-143.84;42.75;45155.69;5071444;28;20437;-73
2022/01/28 03:56:38;;;;;;;4.50;3.80;;;;;;;-143.84;42.19;45130.94;5070291;28;20451;-73
2022/01/28 03:59:07;;;;;;;4.50;3.40;;;;;;;-143.84;42.74;45129.03;5070917;28;20895;-74
2022/01/28 04:01:37;;;;;;;4.17;3.50;;;;;;;-143.84;42.24;45129.03;5070790;28;20441;-74
2022/01/28 04:12:44;;;;;;;4.33;3.90;;;;;;;-143.84;42.21;45142.38;5085900;28;20537;-74
2022/01/28 04:15:23;;;;;;;4.47;4.07;;;;;;;-143.84;42.31;45136.66;5085176;28;20446;-74
2022/01/28 04:17:51;;;;;;;4.60;3.70;;;;;;;-143.84;42.14;45134.75;5084704;28;20450;-73
2022/01/28 04:20:19;;;;;;;4.43;4.03;;;;;;;-143.84;42.04;45136.66;5075032;28;20452;-74
2022/01/28 04:22:47;;;;;;;3.93;3.63;;;;;;;-143.84;42.15;45119.53;5085818;28;20447;-73
2022/01/28 04:25:14;;;;;;;5.43;3.93;;;;;;;-143.84;42.49;45125.22;5085748;28;20478;-74
2022/01/28 04:27:42;;;;;;;3.50;3.10;;;;;;;-143.84;42.50;45129.03;5086040;28;21367;-73
2022/01/28 04:30:10;;;;;;;4.97;4.30;;;;;;;-143.84;42.20;45138.56;5086135;28;20444;-74
2022/01/28 04:32:38;;;;;;;5.37;4.33;;;;;;;-143.84;42.19;45151.91;5085800;28;20444;-74
2022/01/28 04:35:06;;;;;;;3.97;3.57;;;;;;;-143.84;42.04;45104.28;5085696;28;20460;-73
2022/01/28 04:37:41;;;;;;;3.90;3.60;;;;;;;-143.84;42.60;45129.03;5086079;28;20442;-74
2022/01/28 04:40:16;;;;;;;3.53;3.30;;;;;;;-143.84;42.41;45130.94;5085630;28;20447;-74
2022/01/28 04:42:59;;;;;;;4.90;3.43;;;;;;;-143.84;41.86;45146.19;5085237;28;20514;-73
2022/01/28 04:45:34;;;;;;;4.23;3.73;;;;;;;-143.84;42.47;45157.59;5085509;28;20589;-72
2022/01/28 04:48:11;;;;;;;4.57;3.50;;;;;;;-143.84;41.82;45163.31;5084909;28;20463;-73
2022/01/28 04:50:55;;;;;;;5.77;4.43;;;;;;;-143.84;41.59;45151.91;5085773;28;20524;-74
2022/01/28 04:53:51;;;;;;;11.10;6.20;;;;;;;-143.84;41.87;45155.69;5085684;28;20440;-74
2022/01/28 04:56:32;;;;;;;7.63;5.50;;;;;;;-143.84;42.11;45136.66;5085172;28;20573;-74
2022/01/28 04:59:18;;;;;;;4.27;3.97;;;;;;;-143.84;41.88;45129.03;5085234;28;20436;-74
2022/01/28 05:04:55;;;;;;;4.27;3.87;;;;;;;-143.84;41.71;45144.28;5048325;28;20451;-74
2022/01/28 05:13:19;;;;;;;4.27;3.87;;;;;;;-143.84;41.74;45150.00;5084060;28;20494;-74
2022/01/28 05:16:19;;;;;;;3.73;3.37;;;;;;;-143.84;42.19;45151.91;5084847;28;20523;-74
2022/01/28 05:26:56;;;;;;;5.27;4.67;;;;;;;-143.84;42.20;45132.84;5073410;28;20488;-74
2022/01/28 05:29:25;;;;;;;6.17;3.87;;;;;;;-143.84;42.41;45140.47;5071056;28;20963;-74
2022/01/28 05:31:53;;;;;;;3.37;3.13;;;;;;;-143.84;42.12;45148.09;5070604;28;20441;-74
2022/01/28 05:34:23;;;;;;;10.50;3.90;;;;;;;-143.84;42.39;45146.19;5071181;28;20571;-74
2022/01/28 05:36:51;;;;;;;4.30;3.90;;;;;;;-143.84;42.02;45146.19;5071533;28;20449;-74
2022/01/28 05:39:19;;;;;;;5.17;4.60;;;;;;;-143.84;42.47;45148.09;5071586;28;20471;-74
2022/01/28 05:41:46;;;;;;;4.63;3.87;;;;;;;-143.84;42.59;45138.56;5071207;28;20946;-74
2022/01/28 05:44:14;;;;;;;3.77;3.47;;;;;;;-143.84;42.43;45148.09;5071186;28;20863;-74
2022/01/28 05:46:44;;;;;;;4.40;4.10;;;;;;;-143.84;42.54;45132.84;5070845;28;20491;-74
2022/01/28 05:49:13;;;;;;;5.27;4.53;;;;;;;-143.84;42.75;45138.56;5070929;28;20549;-74
2022/01/28 05:51:40;;;;;;;5.93;5.33;;;;;;;-143.84;42.76;45127.13;5070800;28;20544;-74
2022/01/28 05:54:08;;;;;;;7.63;5.50;;;;;;;-143.84;42.85;45129.03;5070859;28;20437;-74
2022/01/28 05:56:35;;;;;;;5.63;5.00;;;;;;;-143.84;42.25;45155.69;5071056;28;20435;-74
2022/01/28 05:59:02;;;;;;;5.80;5.13;;;;;;;-143.84;42.71;45138.56;5071027;28;20459;-74
2022/01/28 06:01:30;;;;;;;5.13;4.47;;;;;;;-143.84;42.69;45140.47;5070669;28;20464;-74
2022/01/28 06:03:58;;;;;;;5.83;5.07;;;;;;;-143.84;43.07;45144.28;5070729;28;20441;-74
2022/01/28 06:06:25;;;;;;;8.13;5.00;;;;;;;-143.84;42.89;45134.75;5070419;28;20550;-74
2022/01/28 06:08:54;;;;;;;5.73;4.50;;;;;;;-143.84;42.84;45136.66;5070398;28;20444;-75
2022/01/28 06:11:23;;;;;;;6.57;5.00;;;;;;;-143.84;43.15;45136.66;5070534;28;20447;-74
2022/01/28 06:13:50;;;;;;;5.03;4.57;;;;;;;-143.84;43.19;45142.38;5070426;28;20440;-74
2022/01/28 06:16:18;;;;;;;7.00;4.90;;;;;;;-143.84;43.32;45159.50;5070938;28;20448;-75
2022/01/28 06:18:46;;;;;;;5.60;4.50;;;;;;;-143.84;42.86;45144.28;5070435;28;20439;-74
2022/01/28 06:21:16;;;;;;;5.53;4.87;;;;;;;-143.84;42.73;45146.19;5070549;28;20445;-75
2022/01/28 06:23:43;;;;;;;5.53;4.93;;;;;;;-143.84;42.91;45172.84;5070387;28;20980;-74
2022/01/28 06:26:10;;;;;;;6.10;4.50;;;;;;;-143.84;43.33;45140.47;5070273;28;20480;-74
2022/01/28 06:28:37;;;;;;;8.80;6.30;;;;;;;-143.84;43.42;45148.09;5069273;28;20429;-74
2022/01/28 06:31:05;;;;;;;10.20;6.00;;;;;;;-143.84;42.46;45151.91;5070860;28;20901;-74
2022/01/28 06:33:32;;;;;;;12.60;6.63;;;;;;;-143.84;42.65;45146.19;5070339;28;20819;-74
2022/01/28 06:35:59;;;;;;;6.17;5.43;;;;;;;-143.84;42.40;45121.44;5070291;28;20895;-74
2022/01/28 06:38:27;;;;;;;10.63;6.87;;;;;;;-143.84;41.76;45146.19;5069463;28;20482;-74
2022/01/28 06:40:55;;;;;;;12.90;6.80;;;;;;;-143.84;41.90;45119.53;5069302;28;20449;-74
2022/01/28 06:43:22;;;;;;;19.10;9.63;;;;;;;-143.84;41.75;45140.47;5069532;28;20440;-74
2022/01/28 06:45:49;;;;;;;9.10;6.10;;;;;;;-143.84;41.44;45159.50;5069463;28;20476;-75
2022/01/28 06:48:18;;;;;;;15.47;7.20;;;;;;;-143.84;40.95;45140.47;5069423;28;20433;-75
2022/01/28 06:50:48;;;;;;;10.03;6.27;;;;;;;-143.84;41.14;45123.34;5069465;28;20522;-74
2022/01/28 06:53:16;;;;;;;16.30;9.00;;;;;;;-143.84;40.94;45130.94;5069348;28;20498;-74
2022/01/28 06:55:44;;;;;;;14.20;8.27;;;;;;;-143.84;41.03;45127.13;5069356;28;20885;-75
2022/01/28 06:58:12;;;;;;;9.10;6.60;;;;;;;-143.84;40.29;45144.28;5069596;28;20437;-75
2022/01/28 07:00:40;;;;;;;7.13;5.70;;;;;;;-143.84;40.76;45130.94;5069122;28;20973;-75
2022/01/28 07:03:08;;;;;;;10.10;7.40;;;;;;;-143.84;40.90;45119.53;5069251;28;21028;-75
2022/01/28 07:05:36;;;;;;;12.73;6.33;;;;;;;-143.84;40.57;45155.69;5069080;28;20488;-75
2022/01/28 07:08:04;;;;;;;7.80;6.03;;;;;;;-143.84;40.22;45121.44;5069743;28;20445;-75
2022/01/28 07:10:32;;;;;;;7.10;5.70;;;;;;;-143.84;40.48;45125.22;5069331;28;20436;-75
2022/01/28 07:13:02;;;;;;;28.23;6.30;;;;;;;-143.84;40.01;45165.22;5069525;28;20445;-75
2022/01/28 07:15:30;;;;;;;10.07;6.37;;;;;;;-143.84;40.13;45140.47;5069450;28;20471;-75
2022/01/28 07:18:00;;;;;;;8.87;5.50;;;;;;;-143.84;40.13;45130.94;5069304;28;20445;-75
2022/01/28 07:20:29;;;;;;;7.77;5.70;;;;;;;-143.84;39.85;45132.84;5069452;28;20843;-75
2022/01/28 07:22:56;;;;;;;9.03;7.50;;;;;;;-143.84;39.51;45117.63;5069279;28;20452;-76
2022/01/28 07:25:23;;;;;;;12.60;7.23;;;;;;;-143.84;39.30;45129.03;5069458;28;20817;-75
2022/01/28 07:27:50;;;;;;;10.63;7.27;;;;;;;-143.84;39.43;45111.91;5069231;28;20476;-74
2022/01/28 07:30:19;;;;;;;9.87;7.50;;;;;;;-143.84;39.70;45117.63;5069337;28;20468;-75
2022/01/28 07:32:49;;;;;;;10.50;7.37;;;;;;;-143.84;38.97;45136.66;5069221;28;20802;-75
2022/01/28 07:35:16;;;;;;;10.53;6.70;;;;;;;-143.84;38.92;45134.75;5068978;28;20428;-75
2022/01/28 07:37:43;;;;;;;10.80;7.30;;;;;;;-143.84;39.43;45117.63;5069374;28;20436;-75
2022/01/28 07:40:12;;;;;;;10.20;7.43;;;;;;;-143.84;39.13;45104.28;5068815;28;20482;-75
2022/01/28 07:42:39;;;;;;;11.80;8.20;;;;;;;-143.84;38.46;45102.38;5068932;28;20832;-75
2022/01/28 07:45:09;;;;;;;9.80;7.40;;;;;;;-143.84;38.27;45111.91;5068861;28;21158;-76
2022/01/28 07:47:38;;;;;;;10.10;8.13;;;;;;;-143.84;38.58;45119.53;5069134;28;20465;-76
2022/01/28 07:50:10;;;;;;;16.70;8.90;;;;;;;-143.84;38.14;45113.81;5068673;28;20440;-76
2022/01/28 07:52:38;;;;;;;17.97;9.27;;;;;;;-143.84;38.36;45094.78;5068756;28;20445;-75
2022/01/28 07:55:07;;;;;;;13.50;8.83;;;;;;;-143.84;37.58;45115.72;5069178;28;20445;-73
2022/01/28 07:57:34;;;;;;;12.67;8.97;;;;;;;-143.84;37.58;45108.09;5068614;28;20482;-73
2022/01/28 08:00:02;;;;;;;11.73;8.30;;;;;;;-143.84;37.22;45092.88;5068740;28;20467;-73
2022/01/28 08:02:29;;;;;;;11.43;8.20;;;;;;;-143.84;37.27;45110.00;5068556;28;20448;-74
2022/01/28 08:04:58;;;;;;;8.30;7.20;;;;;;;-143.84;36.59;45111.91;5068505;28;20931;-73
2022/01/28 08:07:25;;;;;;;14.60;9.20;;;;;;;-143.84;36.44;45098.56;5068148;28;20476;-73
2022/01/28 08:09:58;;;;;;;17.90;8.17;;;;;;;-143.84;36.44;45085.25;5068247;28;20453;-75
2022/01/28 08:12:25;;;;;;;11.80;8.17;;;;;;;-143.84;36.12;45123.34;5068504;28;20470;-73
2022/01/28 08:14:55;;;;;;;11.10;8.73;;;;;;;-143.84;35.76;45094.78;5068431;28;20813;-73
2022/01/28 08:17:22;;;;;;;13.70;8.33;;;;;;;-143.84;35.36;45083.34;5068593;28;20447;-74
2022/01/28 08:19:50;;;;;;;16.53;8.23;;;;;;;-143.84;35.89;45094.78;5068776;28;20443;-73
2022/01/28 08:22:18;;;;;;;16.30;7.73;;;;;;;-143.84;35.53;45110.00;5068148;28;20454;-73
2022/01/28 08:24:45;;;;;;;16.90;8.23;;;;;;;-143.84;35.93;45085.25;5068123;28;20933;-73
2022/01/28 08:27:13;;;;;;;17.60;10.80;;;;;;;-143.84;36.32;45079.53;5068420;28;21032;-72
2022/01/28 08:29:40;;;;;;;19.33;8.83;;;;;;;-143.84;35.58;45083.34;5068525;28;20441;-73
2022/01/28 08:32:08;;;;;;;23.67;9.00;;;;;;;-143.84;35.94;45079.53;5068448;28;20957;-72
2022/01/28 08:34:35;;;;;;;21.70;9.23;;;;;;;-143.84;36.43;45108.09;5068341;28;20441;-72
2022/01/28 08:37:04;;;;;;;12.30;8.70;;;;;;;-143.84;36.13;45110.00;5068500;28;20457;-72
2022/01/28 08:39:34;;;;;;;12.53;8.60;;;;;;;-143.84;36.51;45094.78;5068293;28;20446;-72
2022/01/28 08:42:04;;;;;;;10.50;8.20;;;;;;;-143.84;36.67;45090.97;5068416;28;20477;-73
2022/01/28 08:44:31;;;;;;;9.47;7.80;;;;;;;-143.84;36.76;45075.72;5068377;28;20446;-72
2022/01/28 08:46:58;;;;;;;18.00;8.53;;;;;;;-143.84;37.34;45100.47;5068176;28;20469;-72
2022/01/28 08:49:28;;;;;;;9.47;8.20;;;;;;;-143.84;36.99;45110.00;5067972;28;20446;-73
2022/01/28 08:51:55;;;;;;;14.63;7.07;;;;;;;-143.84;36.62;45083.34;5067940;28;20441;-73
2022/01/28 08:54:23;;;;;;;8.73;6.93;;;;;;;-143.84;36.85;45090.97;5070228;28;20438;-73
2022/01/28 08:56:51;;;;;;;12.73;8.00;;;;;;;-143.84;36.29;45098.56;5070024;28;20444;-72
2022/01/28 08:59:18;;;;;;;15.83;7.33;;;;;;;-143.84;36.84;45087.16;5070792;28;20971;-72
2022/01/28 09:01:45;;;;;;;9.90;6.87;;;;;;;-143.84;36.70;45077.63;5071859;28;21025;-72
2022/01/28 09:04:13;;;;;;;7.77;6.37;;;;;;;-143.84;36.36;45094.78;5072268;28;20437;-72
2022/01/28 09:06:40;;;;;;;13.13;7.70;;;;;;;-143.84;36.79;45090.97;5071370;28;20500;-72
2022/01/28 09:09:07;;;;;;;12.23;7.17;;;;;;;-143.84;36.64;45092.88;5071350;28;20442;-73
2022/01/28 09:11:46;;;;;;;9.93;7.13;;;;;;;-143.84;36.87;45085.25;5071728;28;20441;-72
2022/01/28 09:14:16;;;;;;;21.97;6.97;;;;;;;-143.84;37.36;45094.78;5071646;28;20469;-72
2022/01/28 09:16:43;;;;;;;17.73;8.87;;;;;;;-143.84;37.54;45110.00;5071590;28;20448;-72
2022/01/28 09:19:11;;;;;;;12.17;7.43;;;;;;;-143.84;37.07;45096.66;5071843;28;20429;-73
2022/01/28 09:21:38;;;;;;;28.67;15.33;;;;;;;-143.84;36.70;45098.56;5071835;28;20449;-72
2022/01/28 09:24:06;;;;;;;16.53;6.60;;;;;;;-143.84;36.73;45089.06;5071459;28;20919;-72
2022/01/28 09:26:34;;;;;;;15.83;8.40;;;;;;;-143.84;36.52;45090.97;5071475;28;20434;-72
2022/01/28 09:29:01;;;;;;;10.60;6.90;;;;;;;-143.84;36.38;45098.56;5070736;28;20450;-72
2022/01/28 09:31:29;;;;;;;9.53;6.37;;;;;;;-143.84;36.21;45100.47;5071320;28;20947;-72
2022/01/28 09:33:57;;;;;;;7.40;5.47;;;;;;;-143.84;36.43;45092.88;5071330;28;20454;-73
2022/01/28 09:36:24;;;;;;;9.97;5.30;;;;;;;-143.84;36.02;45102.38;5070072;28;20458;-72
2022/01/28 09:38:51;;;;;;;8.00;6.07;;;;;;;-143.84;36.24;45079.53;5070345;28;20461;-72
2022/01/28 09:41:19;;;;;;;15.30;9.80;;;;;;;-143.84;36.04;45096.66;5070123;28;20458;-71
2022/01/28 09:43:47;;;;;;;12.33;7.53;;;;;;;-143.84;36.41;45102.38;5069970;28;20453;-71
2022/01/28 09:46:17;;;;;;;14.57;9.60;;;;;;;-143.84;37.06;45115.72;5069918;28;20465;-71
2022/01/28 09:48:47;;;;;;;18.40;10.70;;;;;;;-143.84;36.79;45108.09;5068722;28;21208;-71
2022/01/28 09:51:14;;;;;;;10.47;7.03;;;;;;;-143.84;36.90;45110.00;5070050;28;20606;-71
2022/01/28 09:53:42;;;;;;;12.00;7.00;;;;;;;-143.84;37.53;45098.56;5070134;28;20507;-71
2022/01/28 09:56:09;;;;;;;8.60;6.93;;;;;;;-143.84;37.92;45100.47;5067930;28;20442;-72
2022/01/28 09:58:37;;;;;;;30.57;12.90;;;;;;;-143.84;37.75;45104.28;5068918;28;20445;-71
2022/01/28 10:01:05;;;;;;;10.93;6.70;;;;;;;-143.84;37.47;45151.91;5067639;28;20450;-71
2022/01/28 10:03:36;;;;;;;9.50;6.70;;;;;;;-143.84;38.02;45110.00;5068861;28;20447;-71
2022/01/28 10:06:04;;;;;;;19.80;7.00;;;;;;;-143.84;37.98;45117.63;5068366;28;20496;-71
2022/01/28 10:08:32;;;;;;;9.50;6.57;;;;;;;-143.84;38.00;45110.00;5068952;28;20492;-71
2022/01/28 10:11:03;;;;;;;12.73;5.47;;;;;;;-143.84;37.47;45090.97;5068842;28;20450;-70
2022/01/28 10:13:37;;;;;;;7.37;5.70;;;;;;;-143.84;38.00;45106.19;5069088;28;20456;-71
2022/01/28 10:16:11;;;;;;;11.40;6.33;;;;;;;-143.84;37.58;45111.91;5068774;28;20970;-71
2022/01/28 10:18:46;;;;;;;14.00;7.93;;;;;;;-143.84;37.81;45085.25;5068428;28;20459;-71
2022/01/28 10:21:32;;;;;;;7.20;6.50;;;;;;;-143.84;37.26;45100.47;5068568;28;20457;-71
2022/01/28 10:24:12;;;;;;;7.43;6.27;;;;;;;-143.84;36.97;45094.78;5068160;28;20988;-71
2022/01/28 10:26:42;;;;;;;8.17;6.73;;;;;;;-143.84;36.95;45108.09;5067682;28;20995;-72
2022/01/28 10:29:11;;;;;;;10.03;6.80;;;;;;;-143.84;36.46;45113.81;5067828;28;20454;-72
2022/01/28 10:31:54;;;;;;;8.10;6.90;;;;;;;-143.84;36.90;45127.13;5067265;28;20464;-71
2022/01/28 10:34:27;;;;;;;11.07;6.50;;;;;;;-143.84;37.07;45064.31;5068660;28;20479;-72
2022/01/28 10:37:11;;;;;;;15.47;7.90;;;;;;;-143.84;36.73;45077.63;5067034;28;20469;-72
2022/01/28 10:39:44;;;;;;;9.90;6.33;;;;;;;-143.84;36.56;45075.72;5068189;28;20462;-71
2022/01/28 10:42:12;;;;;;;12.90;7.80;;;;;;;-143.84;36.64;45102.38;5066573;28;20451;-72
2022/01/28 10:44:55;;;;;;;12.40;6.83;;;;;;;-143.84;36.32;45083.34;5067137;28;20449;-71
2022/01/28 10:47:33;;;;;;;25.77;5.87;;;;;;;-143.84;36.58;45100.47;5067100;28;20585;-71
2022/01/28 10:50:02;;;;;;;6.33;4.50;;;;;;;-143.84;36.34;45119.53;5067096;28;20455;-72
2022/01/28 10:52:35;;;;;;;7.90;5.40;;;;;;;-143.84;36.72;45083.34;5066836;28;20440;-71
2022/01/28 10:55:02;;;;;;;12.20;4.63;;;;;;;-143.84;37.05;45077.63;5067360;28;20486;-72
2022/01/28 10:57:31;;;;;;;10.73;5.00;;;;;;;-143.84;37.23;45092.88;5067150;28;20984;-71
2022/01/28 10:59:59;;;;;;;10.50;5.20;;;;;;;-143.84;36.61;45068.13;5067858;28;20470;-71
2022/01/28 11:02:27;;;;;;;6.73;4.47;;;;;;;-143.84;35.99;45096.66;5068126;28;20452;-71
2022/01/28 11:04:57;;;;;;;8.70;5.17;;;;;;;-143.84;35.75;45090.97;5067108;28;20472;-72
2022/01/28 11:07:28;;;;;;;7.13;5.30;;;;;;;-143.84;35.61;45096.66;5067153;28;20559;-72
2022/01/28 11:09:57;;;;;;;6.77;5.30;;;;;;;-143.84;35.22;45098.56;5067809;28;20452;-72
2022/01/28 11:12:25;;;;;;;8.80;4.57;;;;;;;-143.84;34.85;45111.91;5067855;28;20472;-71
2022/01/28 11:14:52;;;;;;;5.80;4.50;;;;;;;-143.84;34.96;45098.56;5067369;28;20441;-71
2022/01/28 11:17:20;;;;;;;7.33;5.30;;;;;;;-143.84;35.22;45079.53;5067784;28;20437;-72
2022/01/28 11:19:49;;;;;;;10.70;4.97;;;;;;;-143.84;34.96;45068.13;5067274;28;20456;-72
2022/01/28 11:22:46;;;;;;;12.73;5.90;;;;;;;-143.84;35.16;45073.81;5067588;28;20458;-72
2022/01/28 11:25:44;;;;;;;7.83;6.10;;;;;;;-143.84;34.78;45075.72;5067170;28;20457;-71
2022/01/28 11:28:12;;;;;;;8.30;5.90;;;;;;;-143.84;34.97;45081.44;5064912;28;21218;-71
2022/01/28 11:30:47;;;;;;;6.30;5.30;;;;;;;-143.84;34.70;45079.53;5067235;28;20460;-72
2022/01/28 11:33:15;;;;;;;14.33;6.20;;;;;;;-143.84;34.61;45056.69;5067331;28;20453;-71
2022/01/28 11:36:01;;;;;;;7.40;5.57;;;;;;;-143.84;35.20;45058.59;5067856;28;20440;-71
2022/01/28 11:38:46;;;;;;;9.33;5.33;;;;;;;-143.84;34.66;45070.00;5066857;28;20457;-72
2022/01/28 11:41:18;;;;;;;18.60;8.30;;;;;;;-143.84;34.96;45054.78;5067352;28;20485;-72
2022/01/28 11:43:51;;;;;;;10.10;5.93;;;;;;;-143.84;34.68;45049.06;5067424;28;21256;-72
2022/01/28 11:46:30;;;;;;;7.67;6.17;;;;;;;-143.84;34.63;45077.63;5067003;28;20456;-71
2022/01/28 11:49:24;;;;;;;11.33;7.50;;;;;;;-143.84;34.86;45089.06;5066323;28;20501;-72
2022/01/28 11:51:52;;;;;;;10.00;6.97;;;;;;;-143.84;34.53;45060.50;5067334;28;20462;-72
2022/01/28 11:54:35;;;;;;;9.13;6.03;;;;;;;-143.84;34.72;45081.44;5066980;28;20460;-72
2022/01/28 11:57:16;;;;;;;8.27;5.73;;;;;;;-143.84;34.85;45077.63;5067392;28;20479;-72
2022/01/28 11:59:44;;;;;;;8.10;6.37;;;;;;;-143.84;34.99;45096.66;5066867;28;21018;-72
2022/01/28 12:02:14;;;;;;;7.60;6.40;;;;;;;-143.84;34.96;45064.31;5067296;28;20453;-72
2022/01/28 12:04:44;;;;;;;8.17;6.00;;;;;;;-143.84;34.87;45071.91;5067340;28;20879;-72
2022/01/28 12:07:15;;;;;;;7.30;6.00;;;;;;;-143.84;34.98;45035.75;5067129;28;20473;-72
2022/01/28 12:09:44;;;;;;;6.60;5.10;;;;;;;-143.84;34.77;45066.22;5065533;28;20512;-72
2022/01/28 12:12:14;;;;;;;9.90;6.07;;;;;;;-143.84;35.37;45062.41;5066797;28;20546;-72
2022/01/28 12:14:57;;;;;;;6.83;5.10;;;;;;;-143.84;35.55;45068.13;5067243;28;20456;-72
2022/01/28 12:17:49;;;;;;;16.67;6.83;;;;;;;-143.84;34.98;45081.44;5067045;28;20457;-72
2022/01/28 12:20:38;;;;;;;6.57;5.40;;;;;;;-143.84;35.21;45064.31;5066842;28;20453;-72
2022/01/28 12:23:36;;;;;;;6.33;4.80;;;;;;;-143.84;35.49;45075.72;5064685;28;20460;-72
2022/01/28 12:26:03;;;;;;;7.40;5.10;;;;;;;-143.84;35.74;45075.72;5067269;28;20458;-72